createdAt,value
2022-08-24T00:01:11.794Z,17.23
2022-08-24T00:03:39.174Z,17.24
2022-08-24T00:06:12.976Z,17.18
2022-08-24T00:08:46.978Z,17.19
2022-08-24T00:11:13.600Z,17.22
2022-08-24T00:13:46.982Z,17.22
2022-08-24T00:16:14.818Z,17.26
2022-08-24T00:18:47.875Z,17.20
2022-08-24T00:21:20.876Z,17.15
2022-08-24T00:23:48.996Z,17.12
2022-08-24T00:26:28.837Z,17.12
2022-08-24T00:29:07.308Z,17.10
2022-08-24T00:31:40.874Z,17.06
2022-08-24T00:34:07.856Z,17.02
2022-08-24T00:36:42.194Z,17.01
2022-08-24T00:39:09.053Z,17.02
2022-08-24T00:41:36.069Z,17.03
2022-08-24T00:44:10.780Z,17.06
2022-08-24T00:46:37.568Z,17.01
2022-08-24T00:49:16.783Z,17.01
2022-08-24T00:51:48.030Z,17.00
2022-08-24T00:54:24.799Z,17.00
2022-08-24T00:56:54.164Z,17.04
2022-08-24T00:59:22.424Z,17.03
2022-08-24T01:01:56.862Z,17.00
2022-08-24T01:04:38.803Z,17.03
2022-08-24T01:07:05.432Z,17.05
2022-08-24T01:09:38.870Z,17.02
2022-08-24T01:12:05.771Z,16.95
2022-08-24T01:14:38.951Z,16.95
2022-08-24T01:17:24.169Z,17.01
2022-08-24T01:20:00.940Z,17.06
2022-08-24T01:22:34.467Z,17.07
2022-08-24T01:25:07.961Z,17.00
2022-08-24T01:27:55.952Z,17.01
2022-08-24T01:30:36.265Z,17.00
2022-08-24T01:33:12.842Z,16.98
2022-08-24T01:35:45.825Z,16.95
2022-08-24T01:38:12.454Z,16.94
2022-08-24T01:40:48.779Z,16.94
2022-08-24T01:43:15.586Z,16.91
2022-08-24T01:45:49.790Z,16.89
2022-08-24T01:48:19.927Z,16.91
2022-08-24T01:50:49.699Z,16.87
2022-08-24T01:53:22.790Z,16.87
2022-08-24T01:55:50.225Z,16.88
2022-08-24T01:58:23.950Z,16.89
2022-08-24T02:00:50.510Z,16.91
2022-08-24T02:03:27.654Z,16.88
2022-08-24T02:05:57.266Z,16.87
2022-08-24T02:08:30.763Z,16.89
2022-08-24T02:10:57.346Z,16.88
2022-08-24T02:13:30.794Z,16.90
2022-08-24T02:16:21.018Z,16.89
2022-08-24T02:18:54.893Z,16.90
2022-08-24T02:21:28.008Z,16.89
2022-08-24T02:24:00.775Z,16.92
2022-08-24T02:26:31.357Z,16.90
2022-08-24T02:29:11.840Z,16.91
2022-08-24T02:31:38.601Z,16.85
2022-08-24T02:34:11.770Z,16.81
2022-08-24T02:36:38.661Z,16.85
2022-08-24T02:39:11.770Z,16.93
2022-08-24T02:41:38.640Z,16.94
2022-08-24T02:44:05.829Z,17.00
2022-08-24T02:46:40.027Z,16.98
2022-08-24T02:49:11.011Z,16.92
2022-08-24T02:51:46.834Z,16.97
2022-08-24T02:54:20.783Z,16.93
2022-08-24T02:56:48.071Z,16.88
2022-08-24T02:59:22.775Z,16.88
2022-08-24T03:01:55.836Z,16.81
2022-08-24T03:04:22.589Z,16.75
2022-08-24T03:06:55.783Z,16.69
2022-08-24T03:09:23.421Z,16.66
2022-08-24T03:11:56.923Z,16.62
2022-08-24T03:14:23.552Z,16.60
2022-08-24T03:16:56.771Z,16.58
2022-08-24T03:19:23.858Z,16.58
2022-08-24T03:21:56.867Z,16.56
2022-08-24T03:24:23.834Z,16.52
2022-08-24T03:26:56.747Z,16.50
2022-08-24T03:29:35.258Z,16.50
2022-08-24T03:32:08.766Z,16.46
2022-08-24T03:34:35.410Z,16.41
2022-08-24T03:37:08.822Z,16.40
2022-08-24T03:39:35.781Z,16.41
2022-08-24T03:42:08.756Z,16.42
2022-08-24T03:44:35.402Z,16.42
2022-08-24T03:47:08.765Z,16.43
2022-08-24T03:49:35.920Z,16.42
2022-08-24T03:52:08.826Z,16.43
2022-08-24T03:54:35.490Z,16.45
2022-08-24T03:57:08.913Z,16.43
2022-08-24T03:59:39.332Z,16.43
2022-08-24T04:02:20.003Z,16.44
2022-08-24T04:04:46.587Z,16.49
2022-08-24T04:07:19.757Z,16.43
2022-08-24T04:09:46.671Z,16.45
2022-08-24T04:12:19.785Z,16.42
2022-08-24T04:14:58.921Z,16.43
2022-08-24T04:17:25.528Z,16.37
2022-08-24T04:20:04.811Z,16.38
2022-08-24T04:22:34.103Z,16.42
2022-08-24T04:25:09.023Z,16.44
2022-08-24T04:27:56.921Z,16.46
2022-08-24T04:30:23.482Z,16.45
2022-08-24T04:32:49.982Z,16.47
2022-08-24T04:35:22.902Z,16.47
2022-08-24T04:37:50.161Z,16.48
2022-08-24T04:40:23.758Z,16.50
2022-08-24T04:42:57.837Z,16.50
2022-08-24T04:45:25.147Z,16.57
2022-08-24T04:47:58.768Z,16.61
2022-08-24T04:50:31.927Z,16.64
2022-08-24T04:52:58.765Z,16.64
2022-08-24T04:55:31.946Z,16.69
2022-08-24T04:58:04.895Z,16.89
2022-08-24T05:00:31.737Z,16.76
2022-08-24T05:03:05.156Z,16.77
2022-08-24T05:05:32.759Z,16.92
2022-08-24T05:08:05.751Z,16.92
2022-08-24T05:10:33.883Z,16.94
2022-08-24T05:13:06.777Z,16.97
2022-08-24T05:15:40.891Z,17.01
2022-08-24T05:18:07.604Z,16.97
2022-08-24T05:20:42.731Z,17.00
2022-08-24T05:23:16.806Z,16.99
2022-08-24T05:25:43.505Z,16.91
2022-08-24T05:28:16.739Z,16.97
2022-08-24T05:30:51.113Z,17.06
2022-08-24T05:33:24.753Z,17.06
2022-08-24T05:35:57.744Z,17.08
2022-08-24T05:38:30.747Z,17.00
2022-08-24T05:40:57.341Z,16.97
2022-08-24T05:43:30.790Z,17.11
2022-08-24T05:45:57.672Z,17.18
2022-08-24T05:48:24.419Z,17.10
2022-08-24T05:50:59.739Z,17.08
2022-08-24T05:53:26.484Z,17.07
2022-08-24T05:55:59.732Z,17.00
2022-08-24T05:58:31.053Z,16.96
2022-08-24T06:01:05.735Z,17.03
2022-08-24T06:03:38.783Z,17.06
2022-08-24T06:06:13.817Z,17.08
2022-08-24T06:08:49.738Z,17.15
2022-08-24T06:11:20.969Z,17.24
2022-08-24T06:13:56.331Z,17.35
2022-08-24T06:16:32.934Z,17.30
2022-08-24T06:18:59.755Z,17.28
2022-08-24T06:21:33.796Z,17.28
2022-08-24T06:24:00.493Z,17.34
2022-08-24T06:26:52.765Z,17.47
2022-08-24T06:29:33.731Z,17.54
2022-08-24T06:32:00.350Z,17.54
2022-08-24T06:34:33.718Z,17.48
2022-08-24T06:37:00.529Z,17.43
2022-08-24T06:39:33.718Z,17.48
2022-08-24T06:42:06.769Z,17.48
2022-08-24T06:44:39.736Z,17.51
2022-08-24T06:47:06.731Z,17.51
2022-08-24T06:49:39.732Z,17.61
2022-08-24T06:52:13.837Z,17.61
2022-08-24T06:54:46.991Z,17.67
2022-08-24T06:57:19.825Z,17.77
2022-08-24T06:59:46.689Z,17.86
2022-08-24T07:02:23.094Z,17.87
2022-08-24T07:04:56.715Z,17.87
2022-08-24T07:07:30.708Z,17.85
2022-08-24T07:09:57.310Z,17.88
2022-08-24T07:12:30.730Z,17.88
2022-08-24T07:15:03.732Z,17.90
2022-08-24T07:17:42.759Z,17.89
2022-08-24T07:20:16.709Z,17.91
2022-08-24T07:22:44.749Z,17.86
2022-08-24T07:25:18.902Z,17.94
2022-08-24T07:28:00.930Z,17.98
2022-08-24T07:30:28.187Z,18.04
2022-08-24T07:33:03.775Z,18.13
2022-08-24T07:35:32.435Z,18.23
2022-08-24T07:38:05.749Z,18.28
2022-08-24T07:40:43.499Z,18.37
2022-08-24T07:43:27.775Z,18.41
2022-08-24T07:45:54.413Z,18.51
2022-08-24T07:48:27.776Z,18.56
2022-08-24T07:50:54.449Z,18.59
2022-08-24T07:53:32.466Z,18.70
2022-08-24T07:56:17.723Z,18.63
2022-08-24T07:58:44.353Z,18.73
2022-08-24T08:01:17.750Z,18.76
2022-08-24T08:03:50.706Z,18.67
2022-08-24T08:06:25.711Z,18.61
2022-08-24T08:08:58.747Z,18.54
2022-08-24T08:11:25.591Z,18.54
2022-08-24T08:14:00.722Z,18.53
2022-08-24T08:16:27.604Z,18.54
2022-08-24T08:19:16.052Z,18.56
2022-08-24T08:22:11.719Z,18.63
2022-08-24T08:24:39.050Z,18.71
2022-08-24T08:27:12.703Z,18.75
2022-08-24T08:29:46.114Z,18.80
2022-08-24T08:32:23.750Z,18.83
2022-08-24T08:34:50.480Z,18.88
2022-08-24T08:37:23.828Z,18.90
2022-08-24T08:39:52.864Z,18.94
2022-08-24T08:42:36.723Z,18.95
2022-08-24T08:45:09.615Z,19.01
2022-08-24T08:47:45.725Z,19.08
2022-08-24T08:50:28.712Z,19.12
2022-08-24T08:53:04.545Z,19.21
2022-08-24T08:55:40.698Z,19.29
2022-08-24T08:58:07.317Z,19.32
2022-08-24T09:00:56.741Z,19.36
2022-08-24T09:03:38.783Z,19.45
2022-08-24T09:06:27.708Z,19.51
2022-08-24T09:08:57.801Z,19.63
2022-08-24T09:11:44.738Z,19.61
2022-08-24T09:14:17.701Z,19.65
2022-08-24T09:16:53.860Z,19.68
2022-08-24T09:19:35.720Z,19.75
2022-08-24T09:22:16.261Z,19.82
2022-08-24T09:25:01.700Z,19.85
2022-08-24T09:27:51.414Z,19.96
2022-08-24T09:30:33.741Z,20.05
2022-08-24T09:33:20.533Z,20.07
2022-08-24T09:36:12.729Z,20.16
2022-08-24T09:39:00.724Z,20.22
2022-08-24T09:41:50.341Z,20.24
2022-08-24T09:44:51.695Z,20.29
2022-08-24T09:47:27.464Z,20.41
2022-08-24T09:50:00.675Z,20.49
2022-08-24T09:52:33.743Z,20.49
2022-08-24T09:55:06.701Z,20.44
2022-08-24T10:00:36.742Z,20.66
2022-08-24T10:03:20.799Z,20.81
2022-08-24T10:06:15.824Z,21.00
2022-08-24T10:09:01.350Z,21.07
2022-08-24T10:11:53.713Z,21.27
2022-08-24T10:14:32.528Z,21.28
2022-08-24T10:17:25.719Z,21.38
2022-08-24T10:19:58.399Z,21.49
2022-08-24T10:22:44.708Z,21.62
2022-08-24T10:25:33.788Z,21.61
2022-08-24T10:28:25.684Z,21.64
2022-08-24T10:31:14.712Z,21.66
2022-08-24T10:34:02.710Z,21.70
2022-08-24T10:36:32.429Z,21.88
2022-08-24T10:39:42.851Z,21.87
2022-08-24T10:42:41.683Z,22.20
2022-08-24T10:45:40.787Z,22.08
2022-08-24T10:48:37.125Z,22.11
2022-08-24T10:51:11.722Z,22.12
2022-08-24T10:53:38.414Z,22.21
2022-08-24T10:56:10.162Z,22.19
2022-08-24T10:58:48.695Z,22.26
2022-08-24T11:01:31.917Z,22.23
2022-08-24T11:04:04.628Z,22.18
2022-08-24T11:06:40.694Z,22.21
2022-08-24T11:09:09.968Z,22.20
2022-08-24T11:11:45.690Z,22.14
2022-08-24T11:14:12.402Z,22.21
2022-08-24T11:16:48.704Z,22.33
2022-08-24T11:19:37.741Z,22.58
2022-08-24T11:22:07.109Z,22.64
2022-08-24T11:24:46.685Z,22.75
2022-08-24T11:27:22.670Z,22.66
2022-08-24T11:30:03.684Z,22.62
2022-08-24T11:33:02.674Z,22.59
2022-08-24T11:35:38.743Z,22.51
2022-08-24T11:38:17.638Z,22.46
2022-08-24T11:40:55.721Z,22.44
2022-08-24T11:43:28.535Z,22.42
2022-08-24T11:46:25.722Z,22.41
2022-08-24T11:49:12.443Z,22.43
2022-08-24T11:51:48.656Z,22.42
2022-08-24T11:54:22.098Z,22.47
2022-08-24T11:56:57.690Z,22.53
2022-08-24T11:59:40.668Z,22.59
2022-08-24T12:02:22.751Z,22.70
2022-08-24T12:05:07.679Z,22.83
2022-08-24T12:07:43.705Z,22.85
2022-08-24T12:10:20.926Z,22.91
2022-08-24T12:13:16.664Z,23.00
2022-08-24T12:15:51.966Z,23.22
2022-08-24T12:18:28.679Z,23.32
2022-08-24T12:20:56.563Z,23.41
2022-08-24T12:23:35.670Z,23.51
2022-08-24T12:26:14.664Z,23.36
2022-08-24T12:29:03.715Z,23.18
2022-08-24T12:31:40.036Z,23.11
2022-08-24T12:34:19.713Z,23.10
2022-08-24T12:36:58.416Z,23.10
2022-08-24T12:39:33.685Z,23.20
2022-08-24T12:42:19.660Z,23.20
2022-08-24T12:44:59.648Z,23.17
2022-08-24T12:48:08.671Z,23.28
2022-08-24T12:50:42.758Z,23.30
2022-08-24T12:53:36.712Z,23.33
2022-08-24T12:56:28.686Z,23.42
2022-08-24T12:59:00.913Z,23.43
2022-08-24T13:01:40.025Z,23.37
2022-08-24T13:04:22.683Z,23.36
2022-08-24T13:06:59.679Z,23.40
2022-08-24T13:09:52.944Z,23.35
2022-08-24T13:12:44.853Z,23.35
2022-08-24T13:15:23.796Z,23.53
2022-08-24T13:18:03.862Z,23.84
2022-08-24T13:20:36.786Z,23.94
2022-08-24T13:23:09.682Z,24.30
2022-08-24T13:25:42.801Z,24.24
2022-08-24T13:28:17.720Z,24.56
2022-08-24T13:31:06.827Z,24.77
2022-08-24T13:33:36.263Z,24.66
2022-08-24T13:36:09.697Z,24.84
2022-08-24T13:38:38.049Z,24.82
2022-08-24T13:41:46.727Z,24.88
2022-08-24T13:44:21.266Z,25.13
2022-08-24T13:46:57.716Z,25.14
2022-08-24T13:49:46.326Z,25.16
2022-08-24T13:52:25.674Z,25.22
2022-08-24T13:55:06.846Z,25.25
2022-08-24T13:57:43.663Z,25.24
2022-08-24T14:00:39.823Z,25.43
2022-08-24T14:03:06.474Z,25.54
2022-08-24T14:05:50.716Z,25.76
2022-08-24T14:08:45.650Z,25.89
2022-08-24T14:11:23.657Z,25.98
2022-08-24T14:14:10.695Z,26.07
2022-08-24T14:16:56.053Z,26.14
2022-08-24T14:19:32.654Z,26.07
2022-08-24T14:22:17.679Z,26.04
2022-08-24T14:24:55.019Z,26.07
2022-08-24T14:27:40.661Z,25.87
2022-08-24T14:30:32.652Z,25.66
2022-08-24T14:32:59.165Z,25.42
2022-08-24T14:35:32.706Z,25.47
2022-08-24T14:37:59.186Z,25.39
2022-08-24T14:40:35.075Z,25.46
2022-08-24T14:43:21.739Z,25.50
2022-08-24T14:46:13.694Z,25.52
2022-08-24T14:48:46.353Z,25.57
2022-08-24T14:51:35.700Z,25.69
2022-08-24T14:54:12.108Z,25.98
2022-08-24T14:56:45.653Z,26.28
2022-08-24T14:59:18.675Z,26.43
2022-08-24T15:01:53.717Z,26.58
2022-08-24T15:04:39.737Z,26.77
2022-08-24T15:07:32.653Z,26.72
2022-08-24T15:10:00.224Z,26.77
2022-08-24T15:12:33.720Z,26.68
2022-08-24T15:15:06.650Z,26.73
2022-08-24T15:17:49.149Z,26.57
2022-08-24T15:20:27.672Z,26.44
2022-08-24T15:23:10.691Z,26.31
2022-08-24T15:25:48.039Z,26.28
2022-08-24T15:28:30.643Z,26.20
2022-08-24T15:31:07.024Z,26.17
2022-08-24T15:33:41.688Z,26.17
2022-08-24T15:36:17.677Z,26.21
2022-08-24T15:38:44.395Z,26.22
2022-08-24T15:41:26.691Z,26.31
2022-08-24T15:43:56.407Z,26.38
2022-08-24T15:46:32.740Z,26.47
2022-08-24T15:49:06.277Z,26.56
2022-08-24T15:51:39.670Z,26.57
2022-08-24T15:54:15.294Z,26.50
2022-08-24T15:56:53.664Z,26.49
2022-08-24T15:59:28.625Z,26.59
2022-08-24T16:02:32.692Z,26.56
2022-08-24T16:05:13.083Z,26.42
2022-08-24T16:08:06.849Z,26.39
2022-08-24T16:10:39.879Z,26.28
2022-08-24T16:13:14.648Z,26.31
2022-08-24T16:16:07.678Z,26.44
2022-08-24T16:18:48.648Z,26.46
2022-08-24T16:21:32.664Z,26.45
2022-08-24T16:24:09.663Z,26.31
2022-08-24T16:26:45.388Z,26.27
2022-08-24T16:29:37.057Z,26.20
2022-08-24T16:32:32.407Z,26.15
2022-08-24T16:35:22.667Z,26.01
2022-08-24T16:37:49.416Z,25.91
2022-08-24T16:40:22.703Z,25.85
2022-08-24T16:42:55.649Z,25.74
2022-08-24T16:45:22.572Z,25.62
2022-08-24T16:47:49.207Z,25.47
2022-08-24T16:50:27.502Z,25.42
2022-08-24T16:53:00.654Z,25.39
2022-08-24T16:55:28.528Z,25.38
2022-08-24T16:57:55.822Z,25.28
2022-08-24T17:00:29.640Z,25.14
2022-08-24T17:03:02.662Z,24.99
2022-08-24T17:05:29.685Z,24.88
2022-08-24T17:07:57.941Z,24.78
2022-08-24T17:10:33.930Z,24.61
2022-08-24T17:13:04.025Z,24.43
2022-08-24T17:15:36.647Z,24.31
2022-08-24T17:18:06.490Z,24.17
2022-08-24T17:20:39.659Z,24.06
2022-08-24T17:23:06.267Z,23.95
2022-08-24T17:25:39.656Z,23.84
2022-08-24T17:28:14.004Z,23.76
2022-08-24T17:30:53.643Z,23.64
2022-08-24T17:33:26.831Z,23.57
2022-08-24T17:36:00.663Z,23.45
2022-08-24T17:38:28.892Z,23.39
2022-08-24T17:41:02.661Z,23.31
2022-08-24T17:43:36.651Z,23.23
2022-08-24T17:46:03.366Z,23.16
2022-08-24T17:48:37.647Z,23.07
2022-08-24T17:51:10.631Z,22.99
2022-08-24T17:53:37.495Z,22.91
2022-08-24T17:56:12.673Z,22.83
2022-08-24T17:58:59.530Z,22.76
2022-08-24T18:01:32.687Z,22.65
2022-08-24T18:03:59.452Z,22.57
2022-08-24T18:06:34.668Z,22.47
2022-08-24T18:09:02.861Z,22.37
2022-08-24T18:11:35.654Z,22.30
2022-08-24T18:14:02.504Z,22.20
2022-08-24T18:16:35.880Z,22.14
2022-08-24T18:19:02.539Z,22.08
2022-08-24T18:21:29.241Z,22.01
2022-08-24T18:24:02.632Z,21.95
2022-08-24T18:26:36.653Z,21.90
2022-08-24T18:29:16.658Z,21.84
2022-08-24T18:31:50.808Z,21.77
2022-08-24T18:34:28.649Z,21.73
2022-08-24T18:37:02.692Z,21.68
2022-08-24T18:39:29.299Z,21.64
2022-08-24T18:41:57.873Z,21.59
2022-08-24T18:44:32.000Z,21.55
2022-08-24T18:46:58.649Z,21.52
2022-08-24T18:49:31.677Z,21.47
2022-08-24T18:51:58.979Z,21.42
2022-08-24T18:54:35.640Z,21.37
2022-08-24T18:57:02.404Z,21.32
2022-08-24T18:59:35.649Z,21.28
2022-08-24T19:02:30.860Z,21.23
2022-08-24T19:05:09.646Z,21.17
2022-08-24T19:07:38.441Z,21.13
2022-08-24T19:10:13.632Z,21.10
2022-08-24T19:13:04.760Z,21.04
2022-08-24T19:15:39.530Z,21.02
2022-08-24T19:18:14.661Z,21.00
2022-08-24T19:20:51.659Z,20.96
2022-08-24T19:23:26.616Z,20.93
2022-08-24T19:25:54.595Z,20.91
2022-08-24T19:28:28.652Z,20.90
2022-08-24T19:31:09.713Z,20.88
2022-08-24T19:33:43.168Z,20.85
2022-08-24T19:36:16.647Z,20.82
2022-08-24T19:38:43.556Z,20.81
2022-08-24T19:41:19.062Z,20.78
2022-08-24T19:44:27.242Z,20.76
2022-08-24T19:47:01.664Z,20.70
2022-08-24T19:49:28.308Z,20.68
2022-08-24T19:52:01.650Z,20.67
2022-08-24T19:54:45.673Z,20.65
2022-08-24T19:57:32.028Z,20.63
2022-08-24T20:00:07.922Z,20.60
2022-08-24T20:02:34.667Z,20.58
2022-08-24T20:05:07.691Z,20.54
2022-08-24T20:07:41.645Z,20.52
2022-08-24T20:10:13.033Z,20.48
2022-08-24T20:12:40.440Z,20.45
2022-08-24T20:15:13.604Z,20.43
2022-08-24T20:17:46.821Z,20.40
2022-08-24T20:20:15.783Z,20.38
2022-08-24T20:22:48.720Z,20.36
2022-08-24T20:25:17.010Z,20.33
2022-08-24T20:28:12.159Z,20.30
2022-08-24T20:30:51.779Z,20.27
2022-08-24T20:33:25.578Z,20.27
2022-08-24T20:35:58.842Z,20.26
2022-08-24T20:38:32.727Z,20.24
2022-08-24T20:40:59.805Z,20.21
2022-08-24T20:43:33.919Z,20.21
2022-08-24T20:46:01.921Z,20.20
2022-08-24T20:48:41.866Z,20.18
2022-08-24T20:51:10.423Z,20.15
2022-08-24T20:53:43.711Z,20.13
2022-08-24T20:56:13.455Z,20.12
2022-08-24T20:58:46.676Z,20.10
2022-08-24T21:01:13.724Z,20.09
2022-08-24T21:03:46.734Z,20.06
2022-08-24T21:06:15.926Z,20.03
2022-08-24T21:08:51.887Z,20.00
2022-08-24T21:11:19.245Z,19.99
2022-08-24T21:13:53.783Z,19.93
2022-08-24T21:16:22.584Z,19.87
2022-08-24T21:18:55.727Z,19.85
2022-08-24T21:21:22.515Z,19.84
2022-08-24T21:23:58.690Z,19.81
2022-08-24T21:26:33.388Z,19.80
2022-08-24T21:29:13.760Z,19.78
2022-08-24T21:32:06.935Z,19.80
2022-08-24T21:34:49.821Z,19.74
2022-08-24T21:37:18.719Z,19.71
2022-08-24T21:39:53.816Z,19.69
2022-08-24T21:42:21.827Z,19.66
2022-08-24T21:44:55.721Z,19.68
2022-08-24T21:47:22.454Z,19.70
2022-08-24T21:49:55.697Z,19.70
2022-08-24T21:52:22.926Z,19.69
2022-08-24T21:54:56.695Z,19.68
2022-08-24T21:57:23.508Z,19.70
2022-08-24T21:59:56.614Z,19.69
2022-08-24T22:02:23.272Z,19.64
2022-08-24T22:04:54.588Z,19.59
2022-08-24T22:07:30.623Z,19.49
2022-08-24T22:10:03.619Z,19.37
2022-08-24T22:12:36.632Z,19.29
2022-08-24T22:15:05.477Z,19.32
2022-08-24T22:17:38.600Z,19.34
2022-08-24T22:20:06.784Z,19.33
2022-08-24T22:22:39.635Z,19.29
2022-08-24T22:25:07.244Z,19.25
2022-08-24T22:27:40.688Z,19.23
2022-08-24T22:30:14.998Z,19.23
2022-08-24T22:32:54.789Z,19.24
2022-08-24T22:35:21.329Z,19.24
2022-08-24T22:37:54.586Z,19.31
2022-08-24T22:40:21.205Z,19.36
2022-08-24T22:42:54.596Z,19.36
2022-08-24T22:45:27.580Z,19.26
2022-08-24T22:48:00.606Z,19.18
2022-08-24T22:50:33.575Z,19.16
2022-08-24T22:53:06.806Z,19.10
2022-08-24T22:55:40.608Z,19.09
2022-08-24T22:58:13.586Z,19.06
2022-08-24T23:00:46.644Z,19.11
2022-08-24T23:03:13.245Z,19.08
2022-08-24T23:05:46.635Z,19.02
2022-08-24T23:08:19.618Z,19.02
2022-08-24T23:10:54.572Z,18.95
2022-08-24T23:13:28.125Z,18.95
2022-08-24T23:16:01.765Z,18.93
2022-08-24T23:18:53.616Z,18.92
2022-08-24T23:21:20.327Z,18.89
2022-08-24T23:23:46.910Z,18.89
2022-08-24T23:26:23.609Z,18.87
2022-08-24T23:28:50.406Z,18.88
2022-08-24T23:31:25.618Z,18.81
2022-08-24T23:33:58.752Z,18.78
2022-08-24T23:36:32.595Z,18.77
2022-08-24T23:39:00.220Z,18.76
2022-08-24T23:41:34.608Z,18.73
2022-08-24T23:44:03.333Z,18.71
2022-08-24T23:46:36.687Z,18.73
2022-08-24T23:49:03.823Z,18.71
2022-08-24T23:51:37.607Z,18.72
2022-08-24T23:54:05.197Z,18.68
2022-08-24T23:56:39.577Z,18.67
2022-08-24T23:59:17.239Z,18.67
